URMM

Mineralnyye Vody Airport

Mineralnyye Vody, Russian Federation
TAF URMM 260500Z 2606/2706 10003G08MPS 9999 SCT030 TX24/2612Z TN03/2702Z TEMPO 2609/2615 10005G12MPS TEMPO 2621/2706 3100 BR BKN011
Issued Valid From Valid To
Apr-26 @ 05:00 UTC
(52 minutes ago)
Apr-26 @ 06:00 UTC
(in 8 minutes)
Apr-27 @ 06:00 UTC
(in 24 hours)
Apr-26 @ 06:00 to Apr-27 @ 06:00
TAF URMM 260500Z 2606/2706 10003G08MPS 9999 SCT030 TX24/2612Z TN03/2702Z
Wind Visibility Clouds
100° at 6 knots
 Gusting to 16 knots
10,000+ meters
  • Scattered at 3,000' AGL
Temporary Apr-26 @ 09:00 to Apr-26 @ 15:00
TEMPO 2609/2615 10005G12MPS
Wind
100° at 10 knots
 Gusting to 23 knots
Temporary Apr-26 @ 21:00 to Apr-27 @ 06:00
TEMPO 2621/2706 3100 BR BKN011
Visibility Clouds Conditions
3,106 meters
  • Broken at 1,100' AGL
  • Mist
TAF URMM 260500Z 2606/2706 10003G08MPS 9999 SCT030 TX24/2612Z TN03/2702Z TEMPO 2609/2615 10005G12MPS TEMPO 2621/2706 3100 BR BKN011
Issued Apr-26 @ 05:00 UTC
(52 minutes ago)
Valid From Apr-26 @ 06:00 UTC
(in 8 minutes)
Valid To Apr-27 @ 06:00 UTC
(in 24 hours)
Apr-26 @ 06:00 - Apr-27 @ 06:00
Wind Visibility
100° at 6 knots
 Gusting to 16 knots
10,000+ meters
Clouds
  • Scattered at 3,000' AGL
Temporary Apr-26 @ 09:00 - Apr-26 @ 15:00
Wind
100° at 10 knots
 Gusting to 23 knots
Temporary Apr-26 @ 21:00 - Apr-27 @ 06:00
Clouds
  • Broken at 1,100' AGL
Conditions
  • Mist